createdAt,value
2022-12-14T00:01:48.945Z,12.27
2022-12-14T00:04:17.571Z,12.73
2022-12-14T00:06:44.793Z,12.48
2022-12-14T00:09:11.848Z,11.50
2022-12-14T00:11:39.448Z,12.75
2022-12-14T00:14:06.882Z,13.13
2022-12-14T00:16:35.206Z,13.15
2022-12-14T00:19:04.834Z,12.02
2022-12-14T00:21:31.945Z,12.05
2022-12-14T00:24:00.418Z,12.25
2022-12-14T00:26:31.158Z,13.00
2022-12-14T00:29:00.595Z,12.85
2022-12-14T00:31:28.226Z,12.70
2022-12-14T00:33:55.597Z,12.65
2022-12-14T00:36:24.244Z,11.40
2022-12-14T00:38:51.462Z,12.25
2022-12-14T00:41:18.621Z,12.25
2022-12-14T00:43:45.793Z,12.20
2022-12-14T00:46:16.790Z,10.77
2022-12-14T00:48:44.477Z,12.98
2022-12-14T00:51:11.524Z,11.88
2022-12-14T00:53:38.556Z,13.90
2022-12-14T00:56:07.883Z,11.13
2022-12-14T00:58:35.407Z,12.05
2022-12-14T01:01:07.931Z,12.32
2022-12-14T01:03:36.388Z,12.20
2022-12-14T01:06:04.218Z,13.15
2022-12-14T01:08:35.884Z,13.13
2022-12-14T01:13:31.944Z,12.43
2022-12-14T01:16:10.823Z,12.38
2022-12-14T01:18:39.178Z,12.80
2022-12-14T01:21:15.883Z,11.75
2022-12-14T01:23:44.159Z,11.95
2022-12-14T01:26:15.291Z,11.85
2022-12-14T01:28:42.344Z,12.30
2022-12-14T01:31:11.895Z,11.52
2022-12-14T01:33:40.010Z,12.13
2022-12-14T01:36:09.506Z,12.00
2022-12-14T01:38:37.174Z,13.77
2022-12-14T01:41:05.576Z,11.20
2022-12-14T01:43:54.010Z,13.27
2022-12-14T01:46:44.179Z,11.93
2022-12-14T01:49:21.828Z,11.75
2022-12-14T01:51:56.626Z,12.85
2022-12-14T01:54:25.517Z,11.68
2022-12-14T01:56:53.037Z,11.27
2022-12-14T01:59:28.107Z,12.45
2022-12-14T02:01:56.914Z,12.20
2022-12-14T02:04:24.147Z,11.63
2022-12-14T02:06:59.411Z,12.50
2022-12-14T02:09:33.519Z,12.98
2022-12-14T02:12:25.809Z,11.35
2022-12-14T02:14:54.158Z,10.73
2022-12-14T02:17:22.015Z,11.38
2022-12-14T02:19:49.510Z,10.85
2022-12-14T02:22:37.907Z,12.02
2022-12-14T02:25:32.109Z,11.75
2022-12-14T02:28:20.373Z,11.95
2022-12-14T02:30:57.146Z,11.27
2022-12-14T02:33:47.118Z,11.93
2022-12-14T02:36:41.700Z,13.50
2022-12-14T02:39:21.567Z,12.10
2022-12-14T02:42:15.125Z,12.18
2022-12-14T02:45:13.817Z,12.45
2022-12-14T02:47:44.817Z,11.82
2022-12-14T03:04:32.643Z,12.43
2022-12-14T03:07:04.995Z,11.35
2022-12-14T03:15:00.662Z,12.02
2022-12-14T03:17:33.084Z,12.30
2022-12-14T03:20:09.535Z,11.98
2022-12-14T03:22:47.234Z,11.98
2022-12-14T03:25:21.841Z,12.77
2022-12-14T03:27:59.491Z,12.70
2022-12-14T03:30:58.140Z,12.02
2022-12-14T03:33:21.223Z,12.05
2022-12-14T03:35:58.884Z,11.68
2022-12-14T03:39:00.370Z,11.02
2022-12-14T03:42:02.907Z,11.88
2022-12-14T03:44:57.736Z,12.10
2022-12-14T03:47:49.808Z,13.35
2022-12-14T03:50:50.662Z,12.43
2022-12-14T04:22:09.239Z,12.23
2022-12-14T04:25:05.256Z,12.98
2022-12-14T04:27:53.404Z,11.82
2022-12-14T04:30:20.599Z,12.90
2022-12-14T04:32:59.011Z,11.20
2022-12-14T04:35:36.861Z,13.10
2022-12-14T04:38:17.688Z,12.10
2022-12-14T04:40:56.133Z,12.00
2022-12-14T04:43:29.897Z,12.45
2022-12-14T04:46:09.323Z,11.02
2022-12-14T04:49:07.437Z,12.23
2022-12-14T04:51:54.157Z,11.52
2022-12-14T04:54:21.308Z,11.52
2022-12-14T04:57:00.047Z,11.70
2022-12-14T04:59:27.599Z,11.52
2022-12-14T05:01:55.145Z,12.40
2022-12-14T05:04:54.999Z,12.32
2022-12-14T05:07:34.580Z,12.75
2022-12-14T05:10:11.337Z,11.43
2022-12-14T05:13:03.742Z,12.85
2022-12-14T05:18:09.415Z,11.43
2022-12-14T05:20:36.870Z,12.02
2022-12-14T05:23:03.913Z,13.25
2022-12-14T05:25:31.029Z,11.70
2022-12-14T05:27:58.082Z,12.35
2022-12-14T05:30:25.438Z,12.07
2022-12-14T05:32:53.198Z,12.20
2022-12-14T05:35:21.413Z,11.95
2022-12-14T05:37:49.427Z,13.10
2022-12-14T05:40:17.074Z,12.32
2022-12-14T05:42:46.008Z,12.60
2022-12-14T05:45:15.361Z,12.02
2022-12-14T05:47:42.509Z,12.18
2022-12-14T05:50:09.669Z,11.80
2022-12-14T05:52:36.565Z,11.93
2022-12-14T05:55:05.020Z,12.68
2022-12-14T05:57:32.374Z,13.88
2022-12-14T06:00:00.320Z,13.85
2022-12-14T06:02:27.369Z,14.45
2022-12-14T06:04:54.450Z,13.00
2022-12-14T06:07:27.322Z,12.68
2022-12-14T06:09:54.998Z,13.05
2022-12-14T06:12:22.162Z,12.48
2022-12-14T06:14:49.066Z,12.07
2022-12-14T06:17:16.062Z,12.07
2022-12-14T06:19:43.243Z,12.95
2022-12-14T06:22:17.469Z,13.00
2022-12-14T06:24:44.558Z,15.73
2022-12-14T06:27:11.762Z,17.30
2022-12-14T06:29:38.806Z,17.08
2022-12-14T06:32:06.661Z,13.27
2022-12-14T06:34:39.013Z,13.73
2022-12-14T06:37:07.876Z,12.10
2022-12-14T06:39:35.279Z,12.57
2022-12-14T06:42:02.244Z,12.40
2022-12-14T06:44:29.268Z,12.68
2022-12-14T06:46:56.512Z,12.07
2022-12-14T06:49:23.615Z,12.75
2022-12-14T06:51:55.419Z,11.95
2022-12-14T06:54:23.221Z,13.05
2022-12-14T06:56:50.238Z,12.60
2022-12-14T06:59:17.906Z,12.30
2022-12-14T07:01:49.773Z,13.85
2022-12-14T07:04:18.954Z,13.40
2022-12-14T07:06:46.059Z,13.40
2022-12-14T07:09:15.341Z,13.15
2022-12-14T07:11:42.815Z,13.38
2022-12-14T07:14:16.732Z,12.48
2022-12-14T07:16:47.815Z,12.27
2022-12-14T07:19:17.209Z,12.70
2022-12-14T07:21:44.171Z,13.10
2022-12-14T07:24:11.421Z,12.75
2022-12-14T07:26:38.642Z,13.07
2022-12-14T07:29:06.594Z,12.38
2022-12-14T07:31:33.779Z,13.20
2022-12-14T07:34:00.850Z,12.52
2022-12-14T07:36:29.516Z,10.45
2022-12-14T07:38:57.086Z,14.80
2022-12-14T07:41:30.800Z,14.02
2022-12-14T07:44:00.208Z,14.43
2022-12-14T07:46:29.286Z,15.48
2022-12-14T07:48:57.902Z,15.25
2022-12-14T07:51:30.600Z,14.45
2022-12-14T07:53:58.539Z,13.73
2022-12-14T07:56:28.984Z,12.85
2022-12-14T07:58:57.644Z,13.57
2022-12-14T08:01:30.412Z,13.68
2022-12-14T08:04:01.530Z,13.93
2022-12-14T08:06:30.528Z,14.75
2022-12-14T08:08:58.743Z,15.05
2022-12-14T08:11:27.881Z,13.50
2022-12-14T08:13:59.534Z,14.63
2022-12-14T08:16:29.763Z,14.55
2022-12-14T08:18:58.573Z,14.40
2022-12-14T08:21:26.417Z,14.00
2022-12-14T08:23:54.675Z,19.65
2022-12-14T08:26:22.417Z,26.20
2022-12-14T08:28:49.698Z,24.80
2022-12-14T08:31:20.920Z,24.35
2022-12-14T08:33:48.584Z,17.90
2022-12-14T08:36:21.624Z,17.38
2022-12-14T08:38:59.647Z,16.83
2022-12-14T08:41:28.566Z,17.67
2022-12-14T08:43:58.551Z,18.90
2022-12-14T08:46:27.793Z,14.20
2022-12-14T08:48:56.072Z,14.65
2022-12-14T08:51:24.869Z,14.93
2022-12-14T08:53:53.323Z,14.43
2022-12-14T08:56:23.896Z,14.57
2022-12-14T08:58:52.095Z,15.40
2022-12-14T09:01:25.763Z,16.98
2022-12-14T09:04:02.365Z,15.65
2022-12-14T09:06:29.482Z,14.90
2022-12-14T09:08:57.393Z,16.05
2022-12-14T09:11:26.363Z,14.98
2022-12-14T09:13:55.110Z,16.90
2022-12-14T09:16:26.424Z,16.45
2022-12-14T09:18:54.410Z,13.00
2022-12-14T09:21:22.433Z,16.63
2022-12-14T09:23:55.614Z,18.52
2022-12-14T09:26:28.060Z,18.98
2022-12-14T09:28:58.635Z,16.70
2022-12-14T09:31:27.616Z,17.45
2022-12-14T09:33:55.234Z,17.55
2022-12-14T09:36:27.625Z,16.00
2022-12-14T09:38:56.698Z,16.02
2022-12-14T09:41:45.965Z,14.98
2022-12-14T09:44:27.453Z,15.30
2022-12-14T09:47:10.783Z,16.08
2022-12-14T09:49:48.940Z,14.23
2022-12-14T09:52:55.472Z,14.43
2022-12-14T09:55:55.765Z,15.45
2022-12-14T09:58:28.880Z,13.93
2022-12-14T10:01:13.179Z,13.85
2022-12-14T10:03:51.554Z,14.30
2022-12-14T10:21:03.636Z,13.63
2022-12-14T10:23:31.838Z,14.82
2022-12-14T10:26:04.066Z,14.10
2022-12-14T10:28:34.580Z,13.00
2022-12-14T10:31:06.509Z,14.93
2022-12-14T10:33:33.527Z,13.98
2022-12-14T10:36:26.443Z,15.57
2022-12-14T10:38:56.456Z,14.43
2022-12-14T10:41:49.874Z,13.07
2022-12-14T10:44:37.049Z,13.73
2022-12-14T10:47:16.273Z,12.77
2022-12-14T10:49:54.973Z,12.50
2022-12-14T10:52:30.918Z,13.43
2022-12-14T10:55:06.086Z,12.10
2022-12-14T10:57:33.803Z,14.13
2022-12-14T11:00:08.909Z,14.32
2022-12-14T11:02:43.496Z,13.48
2022-12-14T11:05:52.256Z,10.77
2022-12-14T11:08:48.715Z,11.77
2022-12-14T11:11:25.998Z,11.63
2022-12-14T11:14:08.531Z,12.23
2022-12-14T11:16:41.454Z,12.35
2022-12-14T11:19:22.444Z,11.23
2022-12-14T11:22:04.328Z,10.45
2022-12-14T11:24:31.472Z,10.80
2022-12-14T11:27:02.431Z,10.85
2022-12-14T11:29:37.149Z,10.80
2022-12-14T11:32:06.108Z,10.95
2022-12-14T11:34:41.736Z,11.02
2022-12-14T11:37:26.169Z,11.20
2022-12-14T11:39:56.825Z,11.57
2022-12-14T11:42:25.135Z,10.23
2022-12-14T11:44:53.190Z,10.57
2022-12-14T11:47:29.347Z,10.45
2022-12-14T11:50:00.368Z,10.95
2022-12-14T11:52:43.250Z,11.30
2022-12-14T11:55:26.769Z,10.48
2022-12-14T11:57:57.384Z,11.05
2022-12-14T12:00:45.400Z,11.80
2022-12-14T12:03:16.459Z,11.20
2022-12-14T12:05:44.884Z,10.93
2022-12-14T12:08:19.896Z,11.07
2022-12-14T12:10:50.398Z,10.25
2022-12-14T12:13:18.441Z,11.80
2022-12-14T12:15:55.937Z,12.43
2022-12-14T12:18:48.881Z,11.40
2022-12-14T12:21:27.896Z,11.65
2022-12-14T12:24:03.264Z,10.82
2022-12-14T12:27:00.221Z,10.77
2022-12-14T12:29:33.911Z,11.65
2022-12-14T12:32:19.138Z,11.52
2022-12-14T12:35:10.984Z,11.30
2022-12-14T12:38:02.483Z,11.90
2022-12-14T12:40:43.455Z,13.25
2022-12-14T12:43:30.175Z,12.82
2022-12-14T12:46:00.796Z,11.32
2022-12-14T12:48:52.829Z,11.07
2022-12-14T12:51:25.715Z,12.48
2022-12-14T12:54:01.050Z,12.05
2022-12-14T12:56:36.797Z,10.88
2022-12-14T12:59:06.329Z,12.13
2022-12-14T13:01:39.015Z,10.60
2022-12-14T13:04:15.660Z,12.05
2022-12-14T13:06:58.467Z,11.50
2022-12-14T13:11:55.206Z,11.95
2022-12-14T13:14:32.779Z,12.75
2022-12-14T13:17:01.594Z,11.60
2022-12-14T13:19:54.716Z,12.15
2022-12-14T13:22:29.305Z,12.02
2022-12-14T13:25:00.260Z,12.45
2022-12-14T13:27:30.119Z,13.50
2022-12-14T13:30:47.154Z,12.07
2022-12-14T13:33:45.739Z,12.07
2022-12-14T13:36:35.592Z,12.77
2022-12-14T13:39:12.638Z,11.15
2022-12-14T13:42:01.003Z,12.95
2022-12-14T13:45:12.670Z,11.68
2022-12-14T13:47:43.816Z,13.05
2022-12-14T13:51:01.453Z,12.43
2022-12-14T13:53:36.368Z,11.73
2022-12-14T13:56:04.715Z,11.43
2022-12-14T13:58:42.966Z,12.52
2022-12-14T14:01:14.160Z,12.30
2022-12-14T14:03:47.767Z,12.57
2022-12-14T14:06:17.686Z,11.40
2022-12-14T14:08:53.019Z,11.52
2022-12-14T14:11:38.713Z,10.05
2022-12-14T14:19:58.079Z,11.90
2022-12-14T14:25:38.871Z,12.00
2022-12-14T14:28:11.994Z,13.27
2022-12-14T14:30:56.806Z,12.90
2022-12-14T14:33:46.079Z,12.30
2022-12-14T14:36:27.090Z,13.77
2022-12-14T14:38:56.149Z,12.98
2022-12-14T14:41:27.791Z,13.32
2022-12-14T14:44:00.981Z,13.82
2022-12-14T14:46:54.509Z,14.90
2022-12-14T14:49:35.686Z,14.00
2022-12-14T14:52:39.637Z,14.98
2022-12-14T14:55:51.977Z,16.33
2022-12-14T14:58:29.573Z,15.38
2022-12-14T15:01:21.047Z,15.60
2022-12-14T15:03:57.587Z,15.43
2022-12-14T15:06:32.408Z,15.35
2022-12-14T15:09:05.402Z,15.18
2022-12-14T15:11:57.059Z,14.57
2022-12-14T15:14:52.755Z,14.63
2022-12-14T15:17:25.075Z,15.35
2022-12-14T15:31:01.115Z,14.02
2022-12-14T15:33:34.625Z,14.02
2022-12-14T15:36:06.203Z,14.65
2022-12-14T15:38:35.518Z,14.02
2022-12-14T15:41:17.514Z,14.77
2022-12-14T15:43:47.383Z,14.95
2022-12-14T15:46:23.929Z,15.32
2022-12-14T15:49:08.468Z,14.88
2022-12-14T15:51:41.412Z,14.15
2022-12-14T15:54:20.408Z,13.82
2022-12-14T15:56:54.539Z,14.05
2022-12-14T15:59:26.672Z,14.18
2022-12-14T16:02:06.408Z,13.93
2022-12-14T16:04:37.635Z,14.73
2022-12-14T16:07:15.224Z,15.35
2022-12-14T16:09:51.290Z,15.55
2022-12-14T16:12:28.121Z,14.68
2022-12-14T16:15:01.275Z,15.02
2022-12-14T16:17:36.682Z,15.05
2022-12-14T16:20:11.461Z,16.05
2022-12-14T16:26:14.226Z,14.48
2022-12-14T16:28:41.607Z,15.05
2022-12-14T16:31:19.777Z,15.48
2022-12-14T16:33:50.463Z,15.70
2022-12-14T16:36:20.658Z,16.83
2022-12-14T16:39:20.228Z,14.85
2022-12-14T16:41:59.523Z,15.18
2022-12-14T16:44:29.469Z,15.30
2022-12-14T16:47:05.597Z,15.20
2022-12-14T16:49:40.795Z,14.55
2022-12-14T16:52:10.367Z,15.35
2022-12-14T16:54:38.401Z,14.60
2022-12-14T16:57:20.102Z,15.25
2022-12-14T16:59:57.740Z,15.63
2022-12-14T17:02:33.432Z,17.23
2022-12-14T17:05:04.709Z,16.13
2022-12-14T17:07:34.470Z,16.48
2022-12-14T17:10:01.889Z,16.50
2022-12-14T17:12:29.051Z,16.08
2022-12-14T17:14:57.327Z,16.98
2022-12-14T17:17:34.143Z,18.67
2022-12-14T17:20:09.169Z,17.10
2022-12-14T17:22:39.125Z,15.95
2022-12-14T17:25:06.507Z,16.75
2022-12-14T17:27:33.799Z,16.17
2022-12-14T17:30:00.716Z,17.13
2022-12-14T17:32:33.023Z,18.17
2022-12-14T17:35:00.458Z,18.17
2022-12-14T17:37:34.098Z,17.70
2022-12-14T17:40:04.109Z,18.65
2022-12-14T17:42:31.304Z,17.67
2022-12-14T17:45:00.074Z,20.08
2022-12-14T17:47:27.241Z,19.13
2022-12-14T17:49:55.877Z,18.88
2022-12-14T17:52:31.990Z,19.42
2022-12-14T17:55:27.918Z,17.65
2022-12-14T17:57:56.034Z,15.98
2022-12-14T18:00:48.173Z,15.60
2022-12-14T18:03:16.610Z,17.00
2022-12-14T18:05:49.711Z,18.55
2022-12-14T18:08:17.914Z,19.02
2022-12-14T18:10:50.085Z,19.30
2022-12-14T18:13:17.338Z,19.58
2022-12-14T18:15:50.898Z,22.35
2022-12-14T18:18:20.572Z,21.40
2022-12-14T18:20:53.890Z,20.23
2022-12-14T18:23:22.627Z,19.52
2022-12-14T18:25:56.097Z,19.95
2022-12-14T18:28:27.645Z,20.08
2022-12-14T18:31:01.600Z,19.60
2022-12-14T18:33:29.360Z,20.50
2022-12-14T18:35:58.601Z,21.38
2022-12-14T18:38:26.281Z,20.27
2022-12-14T18:40:55.247Z,20.90
2022-12-14T18:43:25.030Z,19.25
2022-12-14T18:45:53.843Z,20.33
2022-12-14T18:48:23.833Z,21.15
2022-12-14T18:50:53.219Z,20.95
2022-12-14T18:53:23.149Z,19.77
2022-12-14T18:55:53.759Z,20.92
2022-12-14T18:58:31.817Z,20.13
2022-12-14T19:01:00.138Z,22.38
2022-12-14T19:03:36.710Z,19.83
2022-12-14T19:06:42.423Z,19.80
2022-12-14T19:09:34.403Z,19.10
2022-12-14T19:12:01.841Z,18.42
2022-12-14T19:14:32.021Z,18.88
2022-12-14T19:16:59.379Z,19.63
2022-12-14T19:19:31.202Z,18.95
2022-12-14T19:22:03.030Z,20.52
2022-12-14T19:24:31.304Z,19.52
2022-12-14T19:26:58.732Z,19.90
2022-12-14T19:29:26.000Z,19.38
2022-12-14T19:31:54.382Z,19.60
2022-12-14T19:34:22.222Z,19.55
2022-12-14T19:36:49.148Z,19.52
2022-12-14T19:39:16.171Z,19.88
2022-12-14T19:41:43.913Z,19.13
2022-12-14T19:44:13.374Z,19.58
2022-12-14T19:46:40.537Z,20.02
2022-12-14T19:49:13.374Z,19.83
2022-12-14T19:51:40.837Z,20.33
2022-12-14T19:54:11.619Z,19.55
2022-12-14T19:56:39.785Z,19.88
2022-12-14T19:59:07.281Z,20.70
2022-12-14T20:01:39.710Z,19.20
2022-12-14T20:04:13.929Z,18.55
2022-12-14T20:06:41.271Z,19.40
2022-12-14T20:09:09.009Z,20.58
2022-12-14T20:11:36.894Z,21.42
2022-12-14T20:14:05.527Z,20.52
2022-12-14T20:16:32.926Z,19.10
2022-12-14T20:19:00.371Z,19.95
2022-12-14T20:21:31.002Z,19.15
2022-12-14T20:24:01.938Z,19.08
2022-12-14T20:26:30.094Z,19.27
2022-12-14T20:29:01.271Z,18.80
2022-12-14T20:31:29.181Z,20.77
2022-12-14T20:34:01.118Z,20.38
2022-12-14T20:36:30.988Z,19.08
2022-12-14T20:39:01.527Z,20.05
2022-12-14T20:41:30.044Z,20.58
2022-12-14T20:43:57.441Z,22.13
2022-12-14T20:46:47.549Z,21.17
2022-12-14T20:49:18.043Z,21.70
2022-12-14T20:51:53.434Z,22.55
2022-12-14T20:54:25.362Z,22.05
2022-12-14T20:56:57.177Z,21.95
2022-12-14T20:59:24.885Z,21.38
2022-12-14T21:01:56.178Z,21.60
2022-12-14T21:04:25.312Z,21.48
2022-12-14T21:06:53.124Z,21.65
2022-12-14T21:09:21.522Z,23.40
2022-12-14T21:12:09.770Z,23.65
2022-12-14T21:14:39.065Z,20.05
2022-12-14T21:17:06.687Z,21.92
2022-12-14T21:19:36.174Z,20.30
2022-12-14T21:22:05.838Z,21.67
2022-12-14T21:25:01.791Z,20.77
2022-12-14T21:27:28.264Z,21.30
2022-12-14T21:29:55.321Z,21.17
2022-12-14T21:32:24.144Z,21.60
2022-12-14T21:34:51.835Z,20.40
2022-12-14T21:37:20.478Z,21.85
2022-12-14T21:39:55.199Z,24.02
2022-12-14T21:42:24.865Z,23.35
2022-12-14T21:44:53.954Z,23.67
2022-12-14T21:47:31.607Z,22.75
2022-12-14T22:16:41.856Z,24.52
2022-12-14T22:19:20.600Z,24.15
2022-12-14T22:21:48.958Z,26.80
2022-12-14T22:24:16.847Z,24.88
2022-12-14T22:26:47.902Z,26.13
2022-12-14T22:29:19.318Z,26.63
2022-12-14T22:31:46.527Z,19.40
2022-12-14T22:34:19.291Z,26.08
2022-12-14T22:36:47.582Z,27.20
2022-12-14T22:39:14.857Z,25.38
2022-12-14T22:41:42.209Z,26.20
2022-12-14T22:44:11.315Z,26.00
2022-12-14T22:46:39.816Z,25.40
2022-12-14T22:49:08.791Z,26.48
2022-12-14T22:51:36.821Z,24.08
2022-12-14T22:54:04.301Z,25.70
2022-12-14T22:56:46.356Z,24.00
2022-12-14T22:59:18.661Z,23.17
2022-12-14T23:01:50.069Z,23.75
2022-12-14T23:04:20.359Z,25.23
2022-12-14T23:06:47.649Z,23.88
2022-12-14T23:24:26.140Z,23.90
2022-12-14T23:27:12.150Z,22.92
2022-12-14T23:32:51.419Z,23.77
